Terminal Aerodrome Forecast
Issued by NWS Flagstaff, AZ

Home | Current Version | Previous Version | Text Only | Print | Product List | Glossary On
Versions: 1 2 3 4 5 6 7 8 9 10 11 12 13 14 15 16 17 18 19 20 21 22 23 24 25
000
FTUS45 KFGZ 010540
TAFINW
TAF
KINW 010540Z 0106/0206 32008KT P6SM -SHRA SCT010 BKN035
      TEMPO 0107/0111 5SM -SHRA BKN025
     FM011500 VRB05KT P6SM -SHRA SCT035 OVC060
     FM011800 28009G18KT P6SM VCSH BKN060 BKN100
     FM020200 VRB05KT P6SM SCT060=

USA.gov is the U.S. government's official web portal to all federal, state and local government web resources and services.